createdAt,value
2022-10-06T00:00:38.930Z,7.39
2022-10-06T00:03:25.783Z,7.36
2022-10-06T00:05:59.174Z,7.37
2022-10-06T00:08:26.508Z,7.41
2022-10-06T00:10:57.213Z,7.38
2022-10-06T00:13:24.795Z,7.35
2022-10-06T00:15:52.023Z,7.38
2022-10-06T00:18:19.528Z,7.36
2022-10-06T00:20:57.616Z,7.33
2022-10-06T00:23:25.551Z,7.32
2022-10-06T00:25:52.400Z,7.30
2022-10-06T00:28:19.479Z,7.29
2022-10-06T00:30:47.076Z,7.31
2022-10-06T00:33:16.868Z,7.24
2022-10-06T00:35:44.722Z,7.20
2022-10-06T00:38:14.008Z,7.12
2022-10-06T00:40:47.457Z,7.05
2022-10-06T00:43:35.990Z,6.92
2022-10-06T00:46:02.904Z,6.71
2022-10-06T00:48:30.962Z,6.60
2022-10-06T00:50:59.048Z,6.64
2022-10-06T00:53:28.247Z,6.62
2022-10-06T00:55:55.112Z,6.52
2022-10-06T00:58:23.187Z,6.52
2022-10-06T01:00:55.092Z,6.50
2022-10-06T01:03:34.935Z,6.52
2022-10-06T01:06:03.176Z,6.55
2022-10-06T01:08:32.212Z,6.62
2022-10-06T01:10:59.597Z,6.61
2022-10-06T01:13:30.744Z,6.63
2022-10-06T01:16:10.104Z,6.69
2022-10-06T01:18:39.947Z,6.72
2022-10-06T01:21:18.463Z,6.80
2022-10-06T01:23:45.831Z,6.80
2022-10-06T01:26:16.511Z,6.75
2022-10-06T01:28:44.877Z,6.75
2022-10-06T01:31:12.501Z,6.78
2022-10-06T01:33:41.949Z,6.76
2022-10-06T01:36:08.822Z,6.74
2022-10-06T01:38:36.066Z,6.73
2022-10-06T01:41:05.023Z,6.75
2022-10-06T01:43:34.382Z,6.76
2022-10-06T01:46:01.362Z,6.70
2022-10-06T01:48:28.481Z,6.63
2022-10-06T01:50:57.732Z,6.59
2022-10-06T01:53:24.737Z,6.55
2022-10-06T01:55:51.478Z,6.50
2022-10-06T01:58:23.769Z,6.47
2022-10-06T02:00:50.652Z,6.50
2022-10-06T02:03:17.632Z,6.49
2022-10-06T02:05:44.423Z,6.50
2022-10-06T02:08:12.476Z,6.48
2022-10-06T02:10:39.304Z,6.43
2022-10-06T02:13:10.700Z,6.38
2022-10-06T02:15:37.910Z,6.36
2022-10-06T02:18:04.814Z,6.29
2022-10-06T02:20:31.642Z,6.26
2022-10-06T02:22:58.612Z,6.26
2022-10-06T02:25:26.722Z,6.29
2022-10-06T02:27:54.584Z,6.27
2022-10-06T02:30:21.454Z,6.24
2022-10-06T02:32:48.456Z,6.23
2022-10-06T02:35:15.391Z,6.17
2022-10-06T02:37:42.909Z,6.13
2022-10-06T02:40:11.647Z,6.13
2022-10-06T02:42:39.215Z,6.11
2022-10-06T02:45:06.730Z,6.10
2022-10-06T02:47:35.305Z,6.13
2022-10-06T02:50:05.818Z,6.15
2022-10-06T02:52:37.695Z,6.14
2022-10-06T02:55:06.202Z,6.08
2022-10-06T02:57:32.965Z,6.02
2022-10-06T02:59:59.879Z,6.02
2022-10-06T03:02:31.095Z,5.95
2022-10-06T03:04:58.461Z,5.90
2022-10-06T03:07:25.379Z,5.86
2022-10-06T03:09:52.051Z,5.85
2022-10-06T03:12:20.708Z,5.84
2022-10-06T03:14:47.601Z,5.86
2022-10-06T03:17:14.414Z,5.85
2022-10-06T03:19:46.249Z,5.88
2022-10-06T03:22:13.707Z,5.85
2022-10-06T03:24:50.758Z,5.83
2022-10-06T03:27:17.792Z,5.81
2022-10-06T03:29:45.527Z,5.82
2022-10-06T03:32:13.271Z,5.83
2022-10-06T03:34:40.500Z,5.84
2022-10-06T03:37:08.756Z,5.90
2022-10-06T03:39:35.730Z,5.92
2022-10-06T03:42:02.666Z,5.93
2022-10-06T03:44:31.762Z,5.95
2022-10-06T03:46:58.604Z,5.99
2022-10-06T03:49:25.561Z,5.96
2022-10-06T03:51:53.718Z,5.90
2022-10-06T03:54:23.387Z,5.89
2022-10-06T03:56:51.080Z,5.91
2022-10-06T03:59:18.955Z,5.89
2022-10-06T04:01:47.994Z,5.87
2022-10-06T04:04:25.127Z,5.86
2022-10-06T04:06:57.196Z,5.81
2022-10-06T04:09:24.000Z,5.75
2022-10-06T04:11:52.003Z,5.70
2022-10-06T04:14:20.508Z,5.65
2022-10-06T04:16:50.007Z,5.65
2022-10-06T04:19:28.836Z,5.59
2022-10-06T04:21:56.023Z,5.58
2022-10-06T04:24:24.427Z,5.60
2022-10-06T04:26:52.531Z,5.62
2022-10-06T04:29:20.690Z,5.59
2022-10-06T04:31:54.050Z,5.59
2022-10-06T04:34:32.284Z,5.61
2022-10-06T04:36:59.194Z,5.62
2022-10-06T04:39:26.848Z,5.61
2022-10-06T04:41:53.693Z,5.63
2022-10-06T04:44:28.066Z,5.63
2022-10-06T04:46:57.736Z,5.70
2022-10-06T04:50:19.051Z,5.78
2022-10-06T04:52:35.874Z,5.91
2022-10-06T04:55:03.962Z,6.08
2022-10-06T04:57:33.173Z,6.26
2022-10-06T05:00:19.198Z,6.49
2022-10-06T05:02:48.368Z,6.77
2022-10-06T05:05:18.074Z,7.03
2022-10-06T05:07:48.478Z,7.39
2022-10-06T05:10:20.809Z,7.92
2022-10-06T05:13:05.840Z,8.47
2022-10-06T05:15:42.136Z,8.95
2022-10-06T05:18:29.015Z,9.48
2022-10-06T05:21:23.421Z,9.97
2022-10-06T05:24:09.735Z,10.49
2022-10-06T10:21:19.545Z,31.89
2022-10-06T10:24:06.215Z,32.57
2022-10-06T10:27:04.520Z,32.96
2022-10-06T10:29:55.252Z,32.47
2022-10-06T10:32:42.865Z,32.28
2022-10-06T10:35:26.355Z,32.82
2022-10-06T10:37:57.430Z,32.89
2022-10-06T10:40:31.492Z,32.88
2022-10-06T10:43:12.462Z,33.08
2022-10-06T10:45:55.279Z,33.75
2022-10-06T10:48:31.004Z,34.10
2022-10-06T10:51:19.779Z,34.34
2022-10-06T10:53:51.864Z,34.44
2022-10-06T10:56:22.866Z,33.75
2022-10-06T10:59:03.715Z,33.83
2022-10-06T11:01:47.624Z,33.53
2022-10-06T11:04:16.524Z,33.53
2022-10-06T11:06:59.432Z,33.56
2022-10-06T11:09:31.217Z,33.99
2022-10-06T11:12:07.786Z,34.12
2022-10-06T11:15:01.255Z,33.74
2022-10-06T11:17:44.882Z,31.53
2022-10-06T11:20:36.321Z,30.43
2022-10-06T11:23:23.945Z,29.52
2022-10-06T11:26:09.516Z,28.54
2022-10-06T11:29:12.749Z,27.99
2022-10-06T11:32:05.483Z,27.33
2022-10-06T11:34:32.698Z,26.78
2022-10-06T11:37:17.634Z,26.05
2022-10-06T11:40:05.475Z,25.43
2022-10-06T11:42:39.289Z,24.91
2022-10-06T11:45:19.723Z,24.37
2022-10-06T11:48:20.492Z,24.24
2022-10-06T11:50:51.584Z,23.99
2022-10-06T11:53:40.081Z,23.84
2022-10-06T11:56:37.329Z,23.63
2022-10-06T11:59:09.825Z,23.32
2022-10-06T12:01:58.733Z,23.25
2022-10-06T12:04:26.541Z,23.16
2022-10-06T12:06:56.593Z,22.95
2022-10-06T12:09:23.615Z,22.77
2022-10-06T12:11:56.885Z,22.48
2022-10-06T12:16:54.621Z,22.23
2022-10-06T12:17:37.257Z,21.84
2022-10-06T12:20:23.318Z,21.52
2022-10-06T12:23:09.870Z,21.38
2022-10-06T12:26:01.504Z,21.36
2022-10-06T12:28:50.407Z,21.27
2022-10-06T12:31:36.981Z,20.99
2022-10-06T12:34:41.747Z,20.78
2022-10-06T12:37:31.279Z,20.65
2022-10-06T12:40:37.583Z,20.51
2022-10-06T12:43:22.735Z,20.29
2022-10-06T12:46:00.801Z,20.06
2022-10-06T12:48:43.361Z,19.90
2022-10-06T12:51:13.396Z,19.81
2022-10-06T12:53:49.890Z,19.75
2022-10-06T12:56:31.544Z,19.74
2022-10-06T12:59:23.226Z,19.69
2022-10-06T13:01:55.091Z,19.61
2022-10-06T13:04:36.573Z,19.53
2022-10-06T13:07:31.535Z,19.45
2022-10-06T13:10:13.851Z,19.43
2022-10-06T13:12:46.876Z,19.42
2022-10-06T13:15:24.612Z,19.30
2022-10-06T13:18:02.148Z,19.21
2022-10-06T13:20:48.762Z,19.08
2022-10-06T13:23:29.799Z,18.98
2022-10-06T13:25:58.039Z,18.91
2022-10-06T13:28:29.661Z,18.86
2022-10-06T13:33:38.376Z,18.83
2022-10-06T13:36:13.047Z,18.76
2022-10-06T13:38:41.836Z,18.68
2022-10-06T13:41:23.435Z,18.56
2022-10-06T13:43:59.401Z,18.51
2022-10-06T13:46:31.472Z,18.47
2022-10-06T13:49:17.999Z,18.41
2022-10-06T13:51:50.273Z,18.32
2022-10-06T13:54:40.498Z,18.27
2022-10-06T13:57:44.262Z,18.21
2022-10-06T14:00:20.365Z,18.14
2022-10-06T14:02:54.486Z,18.06
2022-10-06T14:05:37.823Z,17.97
2022-10-06T14:08:10.624Z,17.90
2022-10-06T14:10:45.781Z,17.87
2022-10-06T14:13:42.433Z,17.84
2022-10-06T14:16:18.253Z,17.78
2022-10-06T14:18:53.309Z,17.72
2022-10-06T14:21:36.299Z,17.67
2022-10-06T14:24:18.651Z,17.64
2022-10-06T14:26:50.360Z,17.61
2022-10-06T14:29:18.828Z,17.58
2022-10-06T14:31:47.108Z,17.54
2022-10-06T14:34:18.190Z,17.46
2022-10-06T14:36:54.626Z,17.36
2022-10-06T14:39:23.254Z,17.30
2022-10-06T14:41:50.403Z,17.25
2022-10-06T14:44:18.005Z,17.21
2022-10-06T14:46:48.995Z,17.16
2022-10-06T14:49:17.156Z,17.06
2022-10-06T14:51:45.167Z,16.97
2022-10-06T14:54:13.216Z,16.87
2022-10-06T14:56:40.898Z,16.77
2022-10-06T14:59:12.167Z,16.70
2022-10-06T15:01:40.257Z,16.60
2022-10-06T15:04:13.139Z,16.51
2022-10-06T15:07:00.295Z,16.45
2022-10-06T15:09:30.637Z,16.38
2022-10-06T15:11:59.783Z,16.34
2022-10-06T15:14:29.253Z,16.28
2022-10-06T15:17:00.625Z,16.22
2022-10-06T15:19:27.851Z,16.13
2022-10-06T15:21:56.225Z,16.04
2022-10-06T15:24:23.687Z,15.95
2022-10-06T15:27:09.402Z,15.87
2022-10-06T15:29:36.326Z,15.79
2022-10-06T15:32:05.607Z,15.73
2022-10-06T15:34:36.456Z,15.64
2022-10-06T15:37:05.766Z,15.55
2022-10-06T15:39:36.905Z,15.45
2022-10-06T15:42:05.013Z,15.32
2022-10-06T15:44:33.836Z,15.24
2022-10-06T15:47:03.555Z,15.16
2022-10-06T15:49:32.311Z,15.04
2022-10-06T15:52:02.546Z,14.93
2022-10-06T15:54:43.158Z,14.82
2022-10-06T15:57:15.006Z,14.65
2022-10-06T15:59:45.153Z,14.50
2022-10-06T16:02:15.332Z,14.40
2022-10-06T16:04:43.410Z,14.28
2022-10-06T16:07:11.581Z,14.18
2022-10-06T16:09:43.364Z,14.09
2022-10-06T16:12:15.828Z,14.01
2022-10-06T16:14:43.424Z,13.92
2022-10-06T16:17:12.655Z,13.85
2022-10-06T16:19:39.865Z,13.80
2022-10-06T16:22:11.284Z,13.72
2022-10-06T16:24:38.519Z,13.63
2022-10-06T16:27:06.201Z,13.57
2022-10-06T16:29:33.081Z,13.51
2022-10-06T16:31:59.932Z,13.34
2022-10-06T16:34:27.151Z,13.20
2022-10-06T16:36:53.852Z,13.12
2022-10-06T16:39:22.459Z,13.07
2022-10-06T16:41:50.344Z,13.02
2022-10-06T16:44:18.256Z,12.98
2022-10-06T16:46:46.153Z,12.94
2022-10-06T16:49:13.103Z,12.87
2022-10-06T16:51:43.062Z,12.75
2022-10-06T16:54:12.238Z,12.66
2022-10-06T16:56:42.168Z,12.55
2022-10-06T16:59:16.117Z,12.45
2022-10-06T17:01:43.624Z,12.36
2022-10-06T17:04:17.568Z,12.20
2022-10-06T17:06:56.439Z,12.04
2022-10-06T17:09:26.683Z,11.85
2022-10-06T17:12:02.079Z,11.75
2022-10-06T17:14:31.058Z,11.58
2022-10-06T17:16:58.491Z,11.49
2022-10-06T17:19:28.740Z,11.44
2022-10-06T17:21:59.275Z,11.43
2022-10-06T17:24:27.928Z,11.38
2022-10-06T17:26:57.275Z,11.23
2022-10-06T17:29:24.460Z,11.10
2022-10-06T17:31:59.684Z,10.97
2022-10-06T17:34:32.225Z,10.90
2022-10-06T17:37:01.471Z,10.83
2022-10-06T17:39:28.572Z,10.78
2022-10-06T17:41:55.682Z,10.80
2022-10-06T17:44:25.817Z,10.80
2022-10-06T17:47:00.001Z,10.73
2022-10-06T17:49:29.826Z,10.69
2022-10-06T17:51:56.728Z,10.68
2022-10-06T17:54:26.314Z,10.63
2022-10-06T17:56:55.568Z,10.53
2022-10-06T17:59:31.213Z,10.48
2022-10-06T18:02:01.898Z,10.45
2022-10-06T18:04:29.367Z,10.42
2022-10-06T18:06:56.524Z,10.40
2022-10-06T18:09:23.931Z,10.40
2022-10-06T18:11:59.386Z,10.40
2022-10-06T18:14:29.892Z,10.33
2022-10-06T18:16:59.867Z,10.26
2022-10-06T18:19:32.507Z,10.21
2022-10-06T18:22:09.274Z,10.15
2022-10-06T18:24:36.932Z,10.11
2022-10-06T18:27:05.666Z,10.07
2022-10-06T18:29:35.287Z,10.00
2022-10-06T18:37:39.124Z,9.80
2022-10-06T18:40:09.273Z,9.68
2022-10-06T18:42:36.618Z,9.58
2022-10-06T18:45:22.283Z,9.54
2022-10-06T18:48:09.026Z,9.54
2022-10-06T18:50:35.853Z,9.47
2022-10-06T18:53:03.617Z,9.46
2022-10-06T18:55:31.327Z,9.46
2022-10-06T18:57:59.202Z,9.48
2022-10-06T19:00:26.086Z,9.43
2022-10-06T19:02:54.795Z,9.40
2022-10-06T19:05:22.135Z,9.36
2022-10-06T19:07:48.858Z,9.31
2022-10-06T19:10:15.889Z,9.28
2022-10-06T19:12:42.730Z,9.24
2022-10-06T19:15:09.418Z,9.22
2022-10-06T19:17:40.254Z,9.21
2022-10-06T19:20:10.978Z,9.18
2022-10-06T19:22:38.285Z,9.16
2022-10-06T19:25:05.457Z,9.17
2022-10-06T19:27:35.412Z,9.16
2022-10-06T19:30:02.532Z,9.14
2022-10-06T19:32:33.843Z,9.07
2022-10-06T19:35:00.602Z,9.03
2022-10-06T19:37:30.095Z,8.99
2022-10-06T19:39:57.639Z,8.94
2022-10-06T19:42:43.292Z,8.87
2022-10-06T19:45:11.634Z,8.80
2022-10-06T19:47:39.223Z,8.72
2022-10-06T19:50:11.784Z,8.63
2022-10-06T19:52:41.092Z,8.48
2022-10-06T19:55:08.662Z,8.40
2022-10-06T19:57:35.448Z,8.37
2022-10-06T20:00:04.474Z,8.35
2022-10-06T20:02:42.888Z,8.27
2022-10-06T20:05:12.779Z,8.09
2022-10-06T20:07:41.705Z,8.03
2022-10-06T20:10:11.242Z,8.12
2022-10-06T20:12:40.463Z,8.16
2022-10-06T20:15:09.386Z,8.14
2022-10-06T20:17:36.095Z,8.16
2022-10-06T20:20:03.849Z,8.14
2022-10-06T20:22:31.213Z,8.19
2022-10-06T20:24:57.967Z,8.25
2022-10-06T20:27:24.760Z,8.30
2022-10-06T20:29:51.629Z,8.32
2022-10-06T20:32:18.630Z,8.30
2022-10-06T20:34:45.345Z,8.23
2022-10-06T20:37:12.033Z,8.23
2022-10-06T20:39:57.786Z,8.11
2022-10-06T20:42:27.293Z,8.10
2022-10-06T20:44:54.135Z,8.12
2022-10-06T20:47:21.490Z,8.13
2022-10-06T20:49:54.002Z,8.05
2022-10-06T20:52:23.167Z,8.03
2022-10-06T20:54:50.709Z,7.99
2022-10-06T20:57:17.399Z,7.96
2022-10-06T20:59:45.796Z,7.85
2022-10-06T21:02:12.941Z,7.80
2022-10-06T21:04:42.848Z,7.77
2022-10-06T21:07:09.525Z,7.82
2022-10-06T21:09:36.307Z,7.75
2022-10-06T21:12:04.023Z,7.74
2022-10-06T21:14:30.903Z,7.75
2022-10-06T21:16:57.732Z,7.72
2022-10-06T21:19:26.333Z,7.71
2022-10-06T21:21:54.825Z,7.64
2022-10-06T21:24:21.525Z,7.65
2022-10-06T21:26:49.841Z,7.72
2022-10-06T21:29:16.675Z,7.83
2022-10-06T21:31:44.610Z,7.93
2022-10-06T21:34:13.694Z,7.94
2022-10-06T21:36:42.744Z,7.95
2022-10-06T21:39:10.565Z,7.97
2022-10-06T21:41:38.345Z,8.01
2022-10-06T21:44:13.212Z,8.01
2022-10-06T21:46:42.441Z,8.03
2022-10-06T21:49:15.065Z,8.07
2022-10-06T21:51:45.038Z,8.08
2022-10-06T21:54:12.546Z,8.13
2022-10-06T21:56:39.708Z,8.14
2022-10-06T21:59:07.662Z,8.17
2022-10-06T22:01:37.139Z,8.19
2022-10-06T22:04:04.498Z,8.24
2022-10-06T22:06:33.547Z,8.26
2022-10-06T22:09:01.195Z,8.27
2022-10-06T22:11:30.755Z,8.27
2022-10-06T22:14:00.553Z,8.35
2022-10-06T22:16:30.691Z,8.45
2022-10-06T22:18:58.265Z,8.55
2022-10-06T22:21:30.964Z,8.67
2022-10-06T22:24:03.446Z,8.82
2022-10-06T22:26:32.369Z,8.91
2022-10-06T22:28:59.871Z,8.96
2022-10-06T22:31:27.716Z,8.97
2022-10-06T22:33:59.252Z,8.96
2022-10-06T22:36:28.076Z,8.97
2022-10-06T22:38:55.986Z,9.05
2022-10-06T22:41:23.417Z,9.12
2022-10-06T22:43:58.085Z,9.21
2022-10-06T22:46:27.369Z,9.27
2022-10-06T22:48:54.200Z,9.29
2022-10-06T22:51:21.321Z,9.32
2022-10-06T22:53:57.840Z,9.38
2022-10-06T22:56:29.765Z,9.41
2022-10-06T22:58:58.959Z,9.41
2022-10-06T23:01:27.019Z,9.39
2022-10-06T23:03:55.089Z,9.43
2022-10-06T23:06:22.584Z,9.46
2022-10-06T23:08:49.345Z,9.46
2022-10-06T23:11:18.857Z,9.47
2022-10-06T23:13:46.022Z,9.49
2022-10-06T23:16:15.402Z,9.53
2022-10-06T23:18:44.453Z,9.55
2022-10-06T23:21:23.503Z,9.56
2022-10-06T23:24:00.095Z,9.56
2022-10-06T23:26:28.877Z,9.55
2022-10-06T23:28:58.465Z,9.51
2022-10-06T23:31:26.114Z,9.48
2022-10-06T23:33:54.551Z,9.47
2022-10-06T23:36:21.895Z,9.42
2022-10-06T23:38:48.676Z,9.40
2022-10-06T23:41:15.748Z,9.38
2022-10-06T23:43:43.160Z,9.35
2022-10-06T23:46:10.666Z,9.33
2022-10-06T23:48:37.466Z,9.33
2022-10-06T23:51:12.408Z,9.36
2022-10-06T23:53:39.500Z,9.38
2022-10-06T23:56:07.508Z,9.37
2022-10-06T23:58:34.673Z,9.37
